KEPH/EPH METAR and TAF weather

Enter ICAO airport designator
Station Type Date Time Source
KEPH METAR 2019/02/16 03:53 UTC NOAA

KEPH 160353Z AUTO 00000KT 10SM OVC010 00/M02 A2972 RMK AO2 SLP078 T00001022


Station Type Date Time Source
KEPH Decoded METAR 2019/02/16 03:53 UTC NOAA

EPHRATA MUNICIPAL AIRPORT, WA, United States (KEPH) 47-18N 119-31W 383M
Feb 15, 2019 - 10:53 PM EST / 2019.02.16 0353 UTC
Wind: Calm:0
Visibility: 10 mile(s):0
Sky conditions: overcast
Temperature: 32.0 F (0.0 C)
Dew Point: 28.0 F (-2.2 C)
Relative Humidity: 85%
Pressure (altimeter): 29.72 in. Hg (1006 hPa)
ob: KEPH 160353Z AUTO 00000KT 10SM OVC010 00/M02 A2972 RMK AO2 SLP078 T00001022
cycle: 4

Station Type Date Time Source
KEPH TAF UTC NOAA

Error!


Example: see airport list